Time;durP1;ratioP1;P1;durP2;ratioP2;P2;SDS_P1;SDS_P2;PMS_P1;PMS_P2;Temp;Humidity;BMP_temperature;BMP_pressure;BME280_temperature;BME280_humidity;BME280_pressure;Samples;Min_cycle;Max_cycle;Signal;HPM_P1;HPM_P2
2023/05/04 00:00:09;;;;;;;;;;;;;;;;;;4872662;28;20222;-66
2023/05/04 00:02:34;;;;;;;;;;;;;;;;;;4868633;28;20621;-66
2023/05/04 00:05:00;;;;;;;;;;;;;;;;;;4866775;28;20573;-66
2023/05/04 00:07:25;;;;;;;;;;;;;;;;;;4864833;28;20988;-66
2023/05/04 00:09:50;;;;;;;;;;;;;;;;;;4866589;28;20890;-66
2023/05/04 00:12:16;;;;;;;;;;;;;;;;;;4865931;28;20275;-66
2023/05/04 00:14:41;;;;;;;;;;;;;;;;;;4880198;28;20622;-67
2023/05/04 00:17:07;;;;;;;;;;;;;;;;;;4842241;28;21098;-66
2023/05/04 00:19:33;;;;;;;;;;;;;;;;;;4870557;28;20050;-67
2023/05/04 00:22:00;;;;;;;;;;;;;;;;;;4849946;28;20138;-67
2023/05/04 00:24:26;;;;;;;;;;;;;;;;;;4844082;28;20975;-66
2023/05/04 00:26:51;;;;;;;;;;;;;;;;;;4858110;28;20394;-66
2023/05/04 00:29:17;;;;;;;;;;;;;;;;;;4854896;28;20055;-67
2023/05/04 00:31:42;;;;;;;;;;;;;;;;;;4867290;28;20555;-66
2023/05/04 00:34:08;;;;;;;;;;;;;;;;;;4848150;28;20838;-67
2023/05/04 00:36:33;;;;;;;;;;;;;;;;;;4866516;28;19920;-65
2023/05/04 00:38:58;;;;;;;;;;;;;;;;;;4868646;28;21864;-67
2023/05/04 00:41:24;;;;;;;;;;;;;;;;;;4849632;28;21136;-66
2023/05/04 00:43:49;;;;;;;;;;;;;;;;;;4862029;28;20545;-66
2023/05/04 00:46:14;;;;;;;;;;;;;;;;;;4869005;28;20340;-66
2023/05/04 00:48:40;;;;;;;;;;;;;;;;;;4873230;28;20375;-67
2023/05/04 00:51:06;;;;;;;;;;;;;;;;;;4862951;28;20791;-67
2023/05/04 00:53:31;;;;;;;;;;;;;;;;;;4847108;28;20142;-66
2023/05/04 00:55:56;;;;;;;;;;;;;;;;;;4825015;28;19924;-66
2023/05/04 00:58:22;;;;;;;;;;;;;;;;;;4869381;28;20856;-64
2023/05/04 01:00:47;;;;;;;;;;;;;;;;;;4858871;28;20513;-67
2023/05/04 01:03:13;;;;;;;;;;;;;;;;;;4869130;28;21002;-67
2023/05/04 01:05:38;;;;;;;;;;;;;;;;;;4861554;28;21134;-68
2023/05/04 01:08:04;;;;;;;;;;;;;;;;;;4820193;28;20350;-66
2023/05/04 01:10:29;;;;;;;;;;;;;;;;;;4861457;28;20394;-66
2023/05/04 01:12:54;;;;;;;;;;;;;;;;;;4855609;28;20676;-65
2023/05/04 01:15:20;;;;;;;;;;;;;;;;;;4861470;28;19959;-67
2023/05/04 01:17:45;;;;;;;;;;;;;;;;;;4863433;28;20585;-67
2023/05/04 01:20:12;;;;;;;;;;;;;;;;;;4861514;28;20221;-66
2023/05/04 01:22:38;;;;;;;;;;;;;;;;;;4858764;28;20340;-67
2023/05/04 01:25:03;;;;;;;;;;;;;;;;;;4859930;28;20707;-67
2023/05/04 01:27:29;;;;;;;;;;;;;;;;;;4860179;28;20400;-67
2023/05/04 01:29:55;;;;;;;;;;;;;;;;;;4850752;28;20289;-65
2023/05/04 01:32:20;;;;;;;;;;;;;;;;;;4857035;28;20128;-65
2023/05/04 01:34:46;;;;;;;;;;;;;;;;;;4840686;28;19924;-65
2023/05/04 01:37:11;;;;;;;;;;;;;;;;;;4859477;28;20699;-65
2023/05/04 01:39:36;;;;;;;;;;;;;;;;;;4840290;28;21629;-66
2023/05/04 01:42:02;;;;;;;;;;;;;;;;;;4840265;28;20501;-66
2023/05/04 01:44:27;;;;;;;;;;;;;;;;;;4845280;28;20783;-65
2023/05/04 01:46:53;;;;;;;;;;;;;;;;;;4854703;28;20498;-66
2023/05/04 01:49:18;;;;;;;;;;;;;;;;;;4860442;28;21118;-65
2023/05/04 01:51:45;;;;;;;;;;;;;;;;;;4857673;28;20259;-66
2023/05/04 01:54:10;;;;;;;;;;;;;;;;;;4877068;28;20581;-66
2023/05/04 01:56:36;;;;;;;;;;;;;;;;;;4868881;28;20324;-66
2023/05/04 01:59:02;;;;;;;;;;;;;;;;;;4879728;28;20602;-65
2023/05/04 02:01:27;;;;;;;;;;;;;;;;;;4904922;28;20622;-65
2023/05/04 02:03:53;;;;;;;;;;;;;;;;;;4927185;28;20369;-66
2023/05/04 02:06:18;;;;;;;;;;;;;;;;;;4977887;28;19960;-66
2023/05/04 02:08:43;;;;;;;;;;;;;;;;;;5053134;28;19921;-67
2023/05/04 02:11:09;;;;;;;;;;;;;;;;;;5068316;28;19916;-66
2023/05/04 02:13:54;;;;;;;;;;;;;;;;;;5036114;28;19920;-66
2023/05/04 02:16:19;;;;;;;;;;;;;;;;;;5067511;28;20027;-65
2023/05/04 02:18:45;;;;;;;;;;;;;;;;;;5061193;28;19960;-66
2023/05/04 02:21:10;;;;;;;;;;;;;;;;;;5065141;28;19916;-65
2023/05/04 02:23:36;;;;;;;;;;;;;;;;;;5053998;28;19928;-67
2023/05/04 02:26:01;;;;;;;;;;;;;;;;;;5060795;28;20323;-67
2023/05/04 02:28:26;;;;;;;;;;;;;;;;;;5069826;28;19955;-67
2023/05/04 02:30:52;;;;;;;;;;;;;;;;;;5063058;28;19943;-67
2023/05/04 02:33:17;;;;;;;;;;;;;;;;;;5056809;28;19920;-66
2023/05/04 02:35:43;;;;;;;;;;;;;;;;;;5052553;28;19974;-66
2023/05/04 02:38:08;;;;;;;;;;;;;;;;;;5056972;28;19931;-66
2023/05/04 02:40:33;;;;;;;;;;;;;;;;;;5052800;28;20370;-67
2023/05/04 02:42:59;;;;;;;;;;;;;;;;;;5070120;28;20407;-67
2023/05/04 02:45:25;;;;;;;;;;;;;;;;;;5050698;28;20015;-67
2023/05/04 02:47:50;;;;;;;;;;;;;;;;;;5072538;28;20035;-67
2023/05/04 02:50:16;;;;;;;;;;;;;;;;;;5062253;28;19946;-68
2023/05/04 02:52:41;;;;;;;;;;;;;;;;;;5064413;28;19920;-66
2023/05/04 02:55:06;;;;;;;;;;;;;;;;;;5053080;28;19917;-67
2023/05/04 02:57:32;;;;;;;;;;;;;;;;;;5064340;28;20040;-64
2023/05/04 02:59:57;;;;;;;;;;;;;;;;;;5052460;28;19924;-66
2023/05/04 03:02:22;;;;;;;;;;;;;;;;;;5058875;28;19928;-67
2023/05/04 03:04:48;;;;;;;;;;;;;;;;;;5052717;28;19955;-66
2023/05/04 03:07:13;;;;;;;;;;;;;;;;;;5062282;28;20382;-67
2023/05/04 03:09:38;;;;;;;;;;;;;;;;;;5066174;28;19926;-67
2023/05/04 03:12:04;;;;;;;;;;;;;;;;;;5067415;28;19970;-67
2023/05/04 03:14:30;;;;;;;;;;;;;;;;;;5065755;28;19928;-67
2023/05/04 03:16:55;;;;;;;;;;;;;;;;;;5066838;28;19916;-67
2023/05/04 03:19:21;;;;;;;;;;;;;;;;;;5064777;28;19920;-67
2023/05/04 03:21:46;;;;;;;;;;;;;;;;;;5041939;28;19963;-67
2023/05/04 03:24:12;;;;;;;;;;;;;;;;;;5054275;28;19979;-66
2023/05/04 03:26:37;;;;;;;;;;;;;;;;;;5060996;28;20385;-67
2023/05/04 03:29:03;;;;;;;;;;;;;;;;;;5058817;28;20450;-66
2023/05/04 03:31:28;;;;;;;;;;;;;;;;;;5056953;28;20533;-66
2023/05/04 03:33:54;;;;;;;;;;;;;;;;;;5070394;28;19920;-68
2023/05/04 03:36:20;;;;;;;;;;;;;;;;;;5072414;28;19999;-66
2023/05/04 03:38:45;;;;;;;;;;;;;;;;;;5091329;28;19920;-65
2023/05/04 03:41:11;;;;;;;;;;;;;;;;;;5077089;28;20351;-66
2023/05/04 03:43:37;;;;;;;;;;;;;;;;;;5060995;28;19952;-65
2023/05/04 03:46:03;;;;;;;;;;;;;;;;;;5054265;28;20382;-66
2023/05/04 03:48:28;;;;;;;;;;;;;;;;;;5062202;28;20448;-65
2023/05/04 03:50:53;;;;;;;;;;;;;;;;;;5052239;28;19920;-66
2023/05/04 03:53:19;;;;;;;;;;;;;;;;;;5063849;28;20347;-66
2023/05/04 03:55:44;;;;;;;;;;;;;;;;;;5051687;28;19994;-66
2023/05/04 03:58:10;;;;;;;;;;;;;;;;;;5063116;28;19921;-66
2023/05/04 04:00:35;;;;;;;;;;;;;;;;;;5043499;28;19916;-67
2023/05/04 04:03:08;;;;;;;;;;;;;;;;;;5050789;28;19948;-67
2023/05/04 04:05:34;;;;;;;;;;;;;;;;;;5054696;28;20015;-66
2023/05/04 04:08:00;;;;;;;;;;;;;;;;;;5066744;28;20409;-67
2023/05/04 04:10:26;;;;;;;;;;;;;;;;;;5054781;28;19916;-66
2023/05/04 04:12:51;;;;;;;;;;;;;;;;;;5067884;28;19921;-66
2023/05/04 04:15:17;;;;;;;;;;;;;;;;;;5039211;28;19917;-66
2023/05/04 04:17:42;;;;;;;;;;;;;;;;;;5066803;28;19921;-66
2023/05/04 04:20:07;;;;;;;;;;;;;;;;;;5064091;28;20341;-66
2023/05/04 04:22:33;;;;;;;;;;;;;;;;;;5070867;28;19928;-68
2023/05/04 04:24:58;;;;;;;;;;;;;;;;;;5056922;28;20306;-67
2023/05/04 04:27:24;;;;;;;;;;;;;;;;;;5066970;28;20007;-66
2023/05/04 04:29:49;;;;;;;;;;;;;;;;;;5054614;28;19967;-65
2023/05/04 04:32:14;;;;;;;;;;;;;;;;;;5066362;28;19916;-64
2023/05/04 04:34:39;;;;;;;;;;;;;;;;;;5054681;28;19920;-64
2023/05/04 04:37:05;;;;;;;;;;;;;;;;;;5065963;28;19942;-65
2023/05/04 04:39:31;;;;;;;;;;;;;;;;;;5055877;28;19967;-65
2023/05/04 04:41:56;;;;;;;;;;;;;;;;;;5065459;28;19955;-64
2023/05/04 04:44:22;;;;;;;;;;;;;;;;;;5056020;28;19979;-64
2023/05/04 04:46:48;;;;;;;;;;;;;;;;;;5066699;28;20422;-65
2023/05/04 04:49:13;;;;;;;;;;;;;;;;;;5055735;28;20539;-64
2023/05/04 04:51:40;;;;;;;;;;;;;;;;;;5063552;28;19920;-65
2023/05/04 04:54:06;;;;;;;;;;;;;;;;;;5039534;28;19928;-66
2023/05/04 04:56:31;;;;;;;;;;;;;;;;;;5060310;28;19916;-65
2023/05/04 04:58:56;;;;;;;;;;;;;;;;;;5065857;28;19928;-64
2023/05/04 05:01:22;;;;;;;;;;;;;;;;;;5070957;28;19925;-63
2023/05/04 05:03:48;;;;;;;;;;;;;;;;;;5062335;28;19929;-64
2023/05/04 05:06:14;;;;;;;;;;;;;;;;;;5056337;28;19916;-65
2023/05/04 05:08:39;;;;;;;;;;;;;;;;;;5061567;28;20020;-64
2023/05/04 05:11:05;;;;;;;;;;;;;;;;;;5055914;28;19952;-66
2023/05/04 05:13:30;;;;;;;;;;;;;;;;;;5064462;28;19921;-62
2023/05/04 05:15:55;;;;;;;;;;;;;;;;;;5046058;28;20421;-68
2023/05/04 05:18:21;;;;;;;;;;;;;;;;;;5065246;28;20023;-66
2023/05/04 05:20:47;;;;;;;;;;;;;;;;;;5063201;28;19923;-64
2023/05/04 05:23:12;;;;;;;;;;;;;;;;;;5064716;28;19932;-67
2023/05/04 05:25:38;;;;;;;;;;;;;;;;;;5056809;28;20320;-66
2023/05/04 05:28:03;;;;;;;;;;;;;;;;;;5059959;28;20400;-66
2023/05/04 05:30:28;;;;;;;;;;;;;;;;;;5054796;28;19927;-68
2023/05/04 05:32:54;;;;;;;;;;;;;;;;;;5043469;28;19921;-65
2023/05/04 05:35:19;;;;;;;;;;;;;;;;;;5051026;28;19917;-68
2023/05/04 05:37:45;;;;;;;;;;;;;;;;;;5041248;28;20010;-66
2023/05/04 05:40:12;;;;;;;;;;;;;;;;;;5055301;28;19928;-65
2023/05/04 05:42:37;;;;;;;;;;;;;;;;;;5059531;28;19935;-67
2023/05/04 05:45:03;;;;;;;;;;;;;;;;;;5066309;28;19924;-68
2023/05/04 05:47:29;;;;;;;;;;;;;;;;;;5067618;28;19932;-67
2023/05/04 05:49:55;;;;;;;;;;;;;;;;;;5053750;28;19917;-67
2023/05/04 05:52:20;;;;;;;;;;;;;;;;;;5048222;28;20400;-66
2023/05/04 05:54:46;;;;;;;;;;;;;;;;;;5057005;28;20457;-67
2023/05/04 05:57:11;;;;;;;;;;;;;;;;;;5058453;28;20538;-63
2023/05/04 05:59:37;;;;;;;;;;;;;;;;;;5081574;28;19928;-65
2023/05/04 06:02:03;;;;;;;;;;;;;;;;;;5034322;28;20286;-67
2023/05/04 06:04:28;;;;;;;;;;;;;;;;;;5055229;28;19933;-63
2023/05/04 06:06:53;;;;;;;;;;;;;;;;;;5052078;28;19920;-64
2023/05/04 06:09:19;;;;;;;;;;;;;;;;;;5062712;28;19920;-64
2023/05/04 06:11:45;;;;;;;;;;;;;;;;;;5055130;28;19921;-65
2023/05/04 06:14:10;;;;;;;;;;;;;;;;;;5063363;28;19928;-66
2023/05/04 06:16:36;;;;;;;;;;;;;;;;;;5052862;28;20056;-66
2023/05/04 06:19:02;;;;;;;;;;;;;;;;;;5058836;28;19921;-65
2023/05/04 06:21:27;;;;;;;;;;;;;;;;;;5064113;28;20245;-66
2023/05/04 06:23:52;;;;;;;;;;;;;;;;;;5060263;28;20416;-65
2023/05/04 06:26:18;;;;;;;;;;;;;;;;;;5053326;28;19947;-65
2023/05/04 06:28:44;;;;;;;;;;;;;;;;;;5058803;28;19939;-67
2023/05/04 06:31:09;;;;;;;;;;;;;;;;;;5051881;28;20245;-65
2023/05/04 06:33:35;;;;;;;;;;;;;;;;;;5058167;28;19927;-66
2023/05/04 06:36:01;;;;;;;;;;;;;;;;;;5058511;28;20270;-64
2023/05/04 06:38:26;;;;;;;;;;;;;;;;;;5057920;28;19943;-66
2023/05/04 06:40:51;;;;;;;;;;;;;;;;;;5070796;28;20041;-66
2023/05/04 06:43:18;;;;;;;;;;;;;;;;;;5088088;28;20204;-66
2023/05/04 06:45:44;;;;;;;;;;;;;;;;;;5060049;28;20007;-66
2023/05/04 06:48:10;;;;;;;;;;;;;;;;;;5053558;28;19963;-67
2023/05/04 06:50:36;;;;;;;;;;;;;;;;;;5061401;28;19928;-66
2023/05/04 06:53:01;;;;;;;;;;;;;;;;;;5058989;28;20330;-66
2023/05/04 06:55:26;;;;;;;;;;;;;;;;;;5066242;28;20330;-66
2023/05/04 06:57:52;;;;;;;;;;;;;;;;;;5053439;28;19956;-67
2023/05/04 07:00:17;;;;;;;;;;;;;;;;;;5079193;28;19916;-68
2023/05/04 07:02:42;;;;;;;;;;;;;;;;;;5078953;28;19929;-67
2023/05/04 07:05:08;;;;;;;;;;;;;;;;;;5066976;28;20344;-67
2023/05/04 07:07:33;;;;;;;;;;;;;;;;;;5064776;28;19920;-66
2023/05/04 07:09:58;;;;;;;;;;;;;;;;;;5069213;28;19920;-67
2023/05/04 07:12:25;;;;;;;;;;;;;;;;;;5052473;28;19917;-66
2023/05/04 07:14:50;;;;;;;;;;;;;;;;;;5088827;28;20443;-66
2023/05/04 07:17:15;;;;;;;;;;;;;;;;;;5091127;28;19948;-65
2023/05/04 07:19:41;;;;;;;;;;;;;;;;;;5054232;28;19920;-64
2023/05/04 07:22:07;;;;;;;;;;;;;;;;;;5052238;28;19961;-65
2023/05/04 07:24:32;;;;;;;;;;;;;;;;;;5049485;28;20388;-65
2023/05/04 07:26:58;;;;;;;;;;;;;;;;;;5033285;28;19920;-65
2023/05/04 07:29:24;;;;;;;;;;;;;;;;;;5027328;28;19920;-65
2023/05/04 07:31:49;;;;;;;;;;;;;;;;;;5032589;28;19994;-63
2023/05/04 07:34:15;;;;;;;;;;;;;;;;;;5040327;28;19921;-64
2023/05/04 07:36:40;;;;;;;;;;;;;;;;;;5036617;28;19917;-65
2023/05/04 07:39:06;;;;;;;;;;;;;;;;;;5064298;28;19928;-66
2023/05/04 07:41:32;;;;;;;;;;;;;;;;;;5094319;28;19999;-66
2023/05/04 07:43:57;;;;;;;;;;;;;;;;;;5094037;28;20359;-66
2023/05/04 07:46:22;;;;;;;;;;;;;;;;;;5092369;28;19967;-67
2023/05/04 07:48:48;;;;;;;;;;;;;;;;;;5069708;28;19971;-69
2023/05/04 07:51:13;;;;;;;;;;;;;;;;;;5056292;28;19917;-67
2023/05/04 07:53:39;;;;;;;;;;;;;;;;;;5055978;28;20317;-69
2023/05/04 07:56:06;;;;;;;;;;;;;;;;;;5061753;28;19916;-69
2023/05/04 07:58:31;;;;;;;;;;;;;;;;;;5069068;28;19921;-66
2023/05/04 08:00:56;;;;;;;;;;;;;;;;;;5085438;28;19923;-64
2023/05/04 08:03:22;;;;;;;;;;;;;;;;;;5094348;28;20030;-64
2023/05/04 08:05:47;;;;;;;;;;;;;;;;;;5094009;28;19951;-64
2023/05/04 08:08:13;;;;;;;;;;;;;;;;;;5092492;28;19967;-64
2023/05/04 08:10:39;;;;;;;;;;;;;;;;;;5093166;28;19916;-65
2023/05/04 08:13:05;;;;;;;;;;;;;;;;;;5091740;28;20044;-63
2023/05/04 08:15:30;;;;;;;;;;;;;;;;;;5075893;28;19945;-62
2023/05/04 08:17:56;;;;;;;;;;;;;;;;;;5059172;28;19959;-63
2023/05/04 08:20:22;;;;;;;;;;;;;;;;;;5062667;28;19917;-63
2023/05/04 08:22:48;;;;;;;;;;;;;;;;;;5076145;28;19991;-63
2023/05/04 08:25:13;;;;;;;;;;;;;;;;;;5075358;28;19916;-62
2023/05/04 08:27:39;;;;;;;;;;;;;;;;;;5074207;28;19931;-63
2023/05/04 08:30:05;;;;;;;;;;;;;;;;;;5074632;28;19912;-62
2023/05/04 08:32:31;;;;;;;;;;;;;;;;;;5034672;28;19921;-62
2023/05/04 08:34:57;;;;;;;;;;;;;;;;;;5034528;28;19924;-63
2023/05/04 08:37:23;;;;;;;;;;;;;;;;;;5056022;28;20269;-60
2023/05/04 08:39:48;;;;;;;;;;;;;;;;;;5058178;28;20023;-64
2023/05/04 08:42:14;;;;;;;;;;;;;;;;;;5091116;28;19916;-63
2023/05/04 08:44:40;;;;;;;;;;;;;;;;;;5075326;28;20434;-63
2023/05/04 08:47:05;;;;;;;;;;;;;;;;;;5057878;28;20123;-63
2023/05/04 08:49:31;;;;;;;;;;;;;;;;;;5090485;28;19954;-63
2023/05/04 08:51:56;;;;;;;;;;;;;;;;;;5091945;28;19916;-64
2023/05/04 08:54:21;;;;;;;;;;;;;;;;;;5092007;28;19916;-63
2023/05/04 08:56:47;;;;;;;;;;;;;;;;;;5093004;28;19961;-62
2023/05/04 08:59:12;;;;;;;;;;;;;;;;;;5093534;28;20391;-62
2023/05/04 09:01:38;;;;;;;;;;;;;;;;;;5056767;28;19923;-62
2023/05/04 09:04:03;;;;;;;;;;;;;;;;;;5090741;28;20399;-61
2023/05/04 09:06:28;;;;;;;;;;;;;;;;;;5090232;28;20408;-63
2023/05/04 09:08:54;;;;;;;;;;;;;;;;;;5088555;28;19924;-62
2023/05/04 09:11:20;;;;;;;;;;;;;;;;;;5090142;28;19923;-61
2023/05/04 09:13:45;;;;;;;;;;;;;;;;;;5090941;28;19916;-62
2023/05/04 09:16:11;;;;;;;;;;;;;;;;;;5072662;28;19915;-63
2023/05/04 09:18:36;;;;;;;;;;;;;;;;;;5089593;28;19920;-63
2023/05/04 09:21:02;;;;;;;;;;;;;;;;;;5075245;28;19919;-62
2023/05/04 09:23:27;;;;;;;;;;;;;;;;;;5089806;28;19928;-63
2023/05/04 09:25:52;;;;;;;;;;;;;;;;;;5088560;28;19916;-64
2023/05/04 09:28:18;;;;;;;;;;;;;;;;;;5064698;28;19943;-63
2023/05/04 09:30:43;;;;;;;;;;;;;;;;;;5066773;28;19916;-64
2023/05/04 09:33:09;;;;;;;;;;;;;;;;;;5066789;28;19925;-63
2023/05/04 09:35:35;;;;;;;;;;;;;;;;;;5042289;28;20367;-63
2023/05/04 09:38:00;;;;;;;;;;;;;;;;;;5068292;28;19920;-64
2023/05/04 09:40:26;;;;;;;;;;;;;;;;;;5040623;28;19939;-66
2023/05/04 09:42:51;;;;;;;;;;;;;;;;;;5061658;28;20441;-66
2023/05/04 09:45:17;;;;;;;;;;;;;;;;;;5052703;28;19924;-64
2023/05/04 09:47:43;;;;;;;;;;;;;;;;;;5060468;28;19927;-64
2023/05/04 09:50:09;;;;;;;;;;;;;;;;;;5052293;28;20701;-65
2023/05/04 09:52:34;;;;;;;;;;;;;;;;;;5061119;28;20012;-65
2023/05/04 09:54:59;;;;;;;;;;;;;;;;;;5054397;28;20431;-65
2023/05/04 09:57:25;;;;;;;;;;;;;;;;;;5064760;28;19938;-64
2023/05/04 09:59:51;;;;;;;;;;;;;;;;;;5036544;28;19956;-67
2023/05/04 10:02:16;;;;;;;;;;;;;;;;;;5069572;28;19939;-65
2023/05/04 10:04:42;;;;;;;;;;;;;;;;;;5055762;28;19974;-65
2023/05/04 10:07:08;;;;;;;;;;;;;;;;;;5061682;28;19917;-65
2023/05/04 10:09:33;;;;;;;;;;;;;;;;;;5052357;28;19925;-65
2023/05/04 10:11:59;;;;;;;;;;;;;;;;;;5058416;28;19921;-65
2023/05/04 10:14:24;;;;;;;;;;;;;;;;;;5051810;28;19920;-66
2023/05/04 10:16:50;;;;;;;;;;;;;;;;;;5052984;28;19923;-64
2023/05/04 10:19:15;;;;;;;;;;;;;;;;;;5055477;28;19958;-66
2023/05/04 10:21:41;;;;;;;;;;;;;;;;;;5066897;28;19923;-65
2023/05/04 10:24:06;;;;;;;;;;;;;;;;;;5051955;28;19974;-67
2023/05/04 10:26:32;;;;;;;;;;;;;;;;;;5054007;28;19917;-65
2023/05/04 10:28:58;;;;;;;;;;;;;;;;;;5064897;28;19920;-64
2023/05/04 10:31:24;;;;;;;;;;;;;;;;;;5053318;28;19921;-64
2023/05/04 10:33:49;;;;;;;;;;;;;;;;;;5063886;28;20135;-66
2023/05/04 10:36:15;;;;;;;;;;;;;;;;;;5051596;28;19916;-65
2023/05/04 10:38:41;;;;;;;;;;;;;;;;;;5060639;28;19921;-67
2023/05/04 10:41:06;;;;;;;;;;;;;;;;;;5034443;28;19966;-65
2023/05/04 10:43:32;;;;;;;;;;;;;;;;;;5043647;28;19979;-65
2023/05/04 10:45:57;;;;;;;;;;;;;;;;;;5053142;28;20371;-66
2023/05/04 10:48:23;;;;;;;;;;;;;;;;;;5058499;28;20022;-66
2023/05/04 10:50:48;;;;;;;;;;;;;;;;;;5050705;28;20145;-66
2023/05/04 10:53:13;;;;;;;;;;;;;;;;;;5059463;28;19921;-65
2023/05/04 10:55:39;;;;;;;;;;;;;;;;;;5051791;28;19927;-66
2023/05/04 10:58:05;;;;;;;;;;;;;;;;;;5060010;28;19962;-66
2023/05/04 11:00:30;;;;;;;;;;;;;;;;;;5058963;28;19964;-61
2023/05/04 11:02:55;;;;;;;;;;;;;;;;;;5056879;28;19932;-61
2023/05/04 11:05:21;;;;;;;;;;;;;;;;;;5052171;28;19916;-60
2023/05/04 11:07:49;;;;;;;;;;;;;;;;;;5052127;28;19992;-61
2023/05/04 11:10:14;;;;;;;;;;;;;;;;;;5054033;28;19964;-62
2023/05/04 11:12:40;;;;;;;;;;;;;;;;;;5069235;28;19959;-62
2023/05/04 11:15:05;;;;;;;;;;;;;;;;;;5051901;28;19979;-62
2023/05/04 11:17:31;;;;;;;;;;;;;;;;;;5070399;28;19921;-61
2023/05/04 11:19:57;;;;;;;;;;;;;;;;;;5074739;28;19923;-61
2023/05/04 11:22:22;;;;;;;;;;;;;;;;;;5069885;28;20293;-61
2023/05/04 11:24:48;;;;;;;;;;;;;;;;;;5067044;28;19921;-61
2023/05/04 11:27:13;;;;;;;;;;;;;;;;;;5056333;28;20129;-60
2023/05/04 11:29:38;;;;;;;;;;;;;;;;;;5063756;28;20340;-61
2023/05/04 11:32:04;;;;;;;;;;;;;;;;;;5057195;28;20003;-62
2023/05/04 11:34:29;;;;;;;;;;;;;;;;;;5064071;28;19921;-60
2023/05/04 11:36:55;;;;;;;;;;;;;;;;;;5056016;28;19924;-62
2023/05/04 11:39:20;;;;;;;;;;;;;;;;;;5063476;28;19928;-60
2023/05/04 11:41:45;;;;;;;;;;;;;;;;;;5056085;28;19960;-62
2023/05/04 11:44:11;;;;;;;;;;;;;;;;;;5061140;28;19974;-61
2023/05/04 11:46:36;;;;;;;;;;;;;;;;;;5055575;28;20329;-60
2023/05/04 11:49:01;;;;;;;;;;;;;;;;;;5064184;28;19920;-61
2023/05/04 11:51:28;;;;;;;;;;;;;;;;;;5063562;28;19916;-62
2023/05/04 11:53:54;;;;;;;;;;;;;;;;;;5073857;28;19924;-63
2023/05/04 11:56:19;;;;;;;;;;;;;;;;;;5054984;28;19927;-62
2023/05/04 11:58:45;;;;;;;;;;;;;;;;;;5065035;28;19920;-62
2023/05/04 12:01:10;;;;;;;;;;;;;;;;;;5094584;28;19922;-62
2023/05/04 12:03:40;;;;;;;;;;;;;;;;;;5086934;28;20345;-62
2023/05/04 12:06:06;;;;;;;;;;;;;;;;;;5084965;28;19945;-64
2023/05/04 12:08:33;;;;;;;;;;;;;;;;;;5094451;28;19924;-63
2023/05/04 12:10:58;;;;;;;;;;;;;;;;;;5076149;28;19920;-63
2023/05/04 12:13:24;;;;;;;;;;;;;;;;;;5073763;28;20312;-63
2023/05/04 12:15:49;;;;;;;;;;;;;;;;;;5071770;28;19916;-63
2023/05/04 12:18:14;;;;;;;;;;;;;;;;;;5055262;28;19921;-63
2023/05/04 12:20:40;;;;;;;;;;;;;;;;;;5067529;28;19916;-62
2023/05/04 12:23:05;;;;;;;;;;;;;;;;;;5068197;28;19936;-62
2023/05/04 12:25:31;;;;;;;;;;;;;;;;;;5067607;28;19916;-61
2023/05/04 12:27:57;;;;;;;;;;;;;;;;;;5068674;28;19991;-64
2023/05/04 12:30:22;;;;;;;;;;;;;;;;;;5068325;28;19938;-62
2023/05/04 12:32:47;;;;;;;;;;;;;;;;;;5075015;28;20394;-61
2023/05/04 12:35:13;;;;;;;;;;;;;;;;;;5063027;28;20408;-61
2023/05/04 12:37:38;;;;;;;;;;;;;;;;;;5054667;28;19932;-60
2023/05/04 12:40:03;;;;;;;;;;;;;;;;;;5060447;28;19962;-61
2023/05/04 12:42:29;;;;;;;;;;;;;;;;;;5055145;28;19947;-61
2023/05/04 12:44:54;;;;;;;;;;;;;;;;;;5061437;28;20408;-59
2023/05/04 12:47:22;;;;;;;;;;;;;;;;;;5058382;28;19916;-62
2023/05/04 12:49:48;;;;;;;;;;;;;;;;;;5071452;28;20524;-61
2023/05/04 12:52:13;;;;;;;;;;;;;;;;;;5054937;28;19951;-61
2023/05/04 12:54:38;;;;;;;;;;;;;;;;;;5060157;28;19931;-61
2023/05/04 12:57:04;;;;;;;;;;;;;;;;;;5055153;28;19916;-63
2023/05/04 12:59:29;;;;;;;;;;;;;;;;;;5072878;28;20397;-62
2023/05/04 13:01:54;;;;;;;;;;;;;;;;;;5055619;28;19969;-63
2023/05/04 13:04:20;;;;;;;;;;;;;;;;;;5058679;28;20028;-63
2023/05/04 13:06:46;;;;;;;;;;;;;;;;;;5058029;28;20382;-63
2023/05/04 13:09:11;;;;;;;;;;;;;;;;;;5053549;28;19959;-63
2023/05/04 13:11:55;;;;;;;;;;;;;;;;;;5055423;28;20332;-65
2023/05/04 13:14:20;;;;;;;;;;;;;;;;;;5055749;28;19940;-65
2023/05/04 13:16:45;;;;;;;;;;;;;;;;;;5056292;28;20354;-63
2023/05/04 13:19:11;;;;;;;;;;;;;;;;;;5057011;28;20349;-64
2023/05/04 13:21:36;;;;;;;;;;;;;;;;;;5039105;28;20072;-64
2023/05/04 13:24:02;;;;;;;;;;;;;;;;;;5033834;28;19943;-67
2023/05/04 13:26:27;;;;;;;;;;;;;;;;;;5068621;28;19923;-64
2023/05/04 13:28:52;;;;;;;;;;;;;;;;;;5066262;28;19927;-66
2023/05/04 13:31:18;;;;;;;;;;;;;;;;;;5069631;28;19923;-69
2023/05/04 13:33:44;;;;;;;;;;;;;;;;;;5054234;28;19920;-67
2023/05/04 13:36:09;;;;;;;;;;;;;;;;;;5058616;28;19948;-68
2023/05/04 13:38:34;;;;;;;;;;;;;;;;;;5051096;28;19921;-66
2023/05/04 13:41:00;;;;;;;;;;;;;;;;;;5059136;28;19921;-67
2023/05/04 13:43:26;;;;;;;;;;;;;;;;;;5041816;28;19939;-67
2023/05/04 13:45:51;;;;;;;;;;;;;;;;;;5064753;28;19924;-63
2023/05/04 13:48:16;;;;;;;;;;;;;;;;;;5052374;28;19927;-65
2023/05/04 13:50:42;;;;;;;;;;;;;;;;;;5058140;28;20442;-65
2023/05/04 13:53:09;;;;;;;;;;;;;;;;;;5050204;28;19934;-65
2023/05/04 13:55:35;;;;;;;;;;;;;;;;;;5089507;28;20535;-66
2023/05/04 13:58:00;;;;;;;;;;;;;;;;;;5082890;28;20015;-66
2023/05/04 14:00:25;;;;;;;;;;;;;;;;;;5070535;28;19912;-62
2023/05/04 14:02:51;;;;;;;;;;;;;;;;;;5089507;28;20401;-64
2023/05/04 14:05:16;;;;;;;;;;;;;;;;;;5089801;28;19923;-64
2023/05/04 14:07:42;;;;;;;;;;;;;;;;;;5087980;28;20377;-65
2023/05/04 14:10:07;;;;;;;;;;;;;;;;;;5081515;28;19912;-65
2023/05/04 14:12:33;;;;;;;;;;;;;;;;;;5083606;28;19945;-67
2023/05/04 14:15:00;;;;;;;;;;;;;;;;;;5086703;28;19938;-65
2023/05/04 14:17:25;;;;;;;;;;;;;;;;;;5086974;28;19962;-66
2023/05/04 14:19:50;;;;;;;;;;;;;;;;;;5078976;28;19955;-67
2023/05/04 14:22:16;;;;;;;;;;;;;;;;;;5077717;28;19955;-68
2023/05/04 14:24:41;;;;;;;;;;;;;;;;;;5087792;28;20441;-66
2023/05/04 14:27:07;;;;;;;;;;;;;;;;;;5088188;28;19942;-64
2023/05/04 14:29:33;;;;;;;;;;;;;;;;;;5088681;28;19920;-66
2023/05/04 14:31:58;;;;;;;;;;;;;;;;;;5088456;28;20380;-65
2023/05/04 14:34:23;;;;;;;;;;;;;;;;;;5089142;28;19927;-67
2023/05/04 14:36:49;;;;;;;;;;;;;;;;;;5088893;28;19920;-66
2023/05/04 14:39:14;;;;;;;;;;;;;;;;;;5089486;28;19943;-67
2023/05/04 14:41:40;;;;;;;;;;;;;;;;;;5071437;28;20242;-65
2023/05/04 14:44:05;;;;;;;;;;;;;;;;;;5089906;28;19935;-65
2023/05/04 14:46:30;;;;;;;;;;;;;;;;;;5089204;28;19993;-65
2023/05/04 14:48:56;;;;;;;;;;;;;;;;;;5065069;28;19935;-62
2023/05/04 14:51:21;;;;;;;;;;;;;;;;;;5052942;28;19923;-63
2023/05/04 14:53:47;;;;;;;;;;;;;;;;;;5087870;28;19925;-65
2023/05/04 14:56:12;;;;;;;;;;;;;;;;;;5088740;28;19970;-66
2023/05/04 14:58:37;;;;;;;;;;;;;;;;;;5088424;28;19947;-64
2023/05/04 15:01:03;;;;;;;;;;;;;;;;;;5088749;28;19962;-63
2023/05/04 15:03:28;;;;;;;;;;;;;;;;;;5088850;28;20312;-65
2023/05/04 15:05:53;;;;;;;;;;;;;;;;;;5080697;28;19966;-63
2023/05/04 15:08:19;;;;;;;;;;;;;;;;;;5084444;28;19924;-68
2023/05/04 15:10:44;;;;;;;;;;;;;;;;;;5066179;28;19927;-69
2023/05/04 15:13:14;;;;;;;;;;;;;;;;;;5043487;28;19976;-67
2023/05/04 15:15:39;;;;;;;;;;;;;;;;;;5082958;28;20018;-66
2023/05/04 15:18:05;;;;;;;;;;;;;;;;;;5084111;28;19967;-65
2023/05/04 15:20:30;;;;;;;;;;;;;;;;;;5069025;28;20012;-68
2023/05/04 15:22:55;;;;;;;;;;;;;;;;;;5082375;28;19928;-67
2023/05/04 15:25:22;;;;;;;;;;;;;;;;;;5088301;28;19963;-68
2023/05/04 15:27:48;;;;;;;;;;;;;;;;;;5090091;28;19921;-68
2023/05/04 15:30:13;;;;;;;;;;;;;;;;;;5075591;28;19939;-66
2023/05/04 15:32:38;;;;;;;;;;;;;;;;;;5062430;28;19925;-65
2023/05/04 15:35:04;;;;;;;;;;;;;;;;;;5066427;28;20305;-68
2023/05/04 15:37:29;;;;;;;;;;;;;;;;;;5049447;28;19986;-69
2023/05/04 15:39:55;;;;;;;;;;;;;;;;;;5067861;28;19917;-67
2023/05/04 15:42:20;;;;;;;;;;;;;;;;;;5068565;28;19916;-68
2023/05/04 15:44:46;;;;;;;;;;;;;;;;;;5085957;28;19929;-69
2023/05/04 15:47:11;;;;;;;;;;;;;;;;;;5077115;28;20002;-68
2023/05/04 15:49:36;;;;;;;;;;;;;;;;;;5061021;28;19927;-67
2023/05/04 15:52:02;;;;;;;;;;;;;;;;;;5041218;28;20309;-67
2023/05/04 15:54:27;;;;;;;;;;;;;;;;;;5051832;28;20361;-69
2023/05/04 15:56:52;;;;;;;;;;;;;;;;;;5059284;28;19923;-66
2023/05/04 15:59:18;;;;;;;;;;;;;;;;;;5066645;28;19970;-66
2023/05/04 16:01:43;;;;;;;;;;;;;;;;;;5071693;28;19916;-66
2023/05/04 16:04:10;;;;;;;;;;;;;;;;;;5069227;28;19939;-66
2023/05/04 16:06:35;;;;;;;;;;;;;;;;;;5054408;28;20415;-67
2023/05/04 16:09:01;;;;;;;;;;;;;;;;;;5069736;28;19921;-67
2023/05/04 16:11:26;;;;;;;;;;;;;;;;;;5069366;28;19971;-66
2023/05/04 16:13:52;;;;;;;;;;;;;;;;;;5064631;28;19921;-65
2023/05/04 16:16:17;;;;;;;;;;;;;;;;;;5055988;28;19916;-67
2023/05/04 16:18:43;;;;;;;;;;;;;;;;;;5065750;28;19921;-65
2023/05/04 16:21:08;;;;;;;;;;;;;;;;;;5064147;28;19917;-69
2023/05/04 16:23:35;;;;;;;;;;;;;;;;;;5064911;28;19947;-67
2023/05/04 16:26:02;;;;;;;;;;;;;;;;;;5066645;28;19916;-66
2023/05/04 16:28:28;;;;;;;;;;;;;;;;;;5063555;28;19965;-70
2023/05/04 16:30:54;;;;;;;;;;;;;;;;;;5036666;28;20332;-67
2023/05/04 16:33:20;;;;;;;;;;;;;;;;;;5056832;28;20007;-67